createdAt,value
2023-02-01T00:03:40.592Z,8.35
2023-02-01T00:08:47.153Z,8.25
2023-02-01T00:13:56.891Z,8.20
2023-02-01T00:19:02.828Z,8.17
2023-02-01T00:24:05.338Z,8.15
2023-02-01T00:29:14.453Z,8.14
2023-02-01T00:34:18.193Z,8.08
2023-02-01T00:39:20.729Z,8.05
2023-02-01T00:44:25.795Z,8.01
2023-02-01T00:49:29.735Z,7.99
2023-02-01T00:54:37.130Z,7.94
2023-02-01T00:59:41.488Z,7.93
2023-02-01T01:04:45.557Z,7.90
2023-02-01T01:09:51.717Z,7.87
2023-02-01T01:14:56.234Z,7.80
2023-02-01T01:19:59.927Z,7.72
2023-02-01T01:25:05.735Z,7.72
2023-02-01T01:30:11.563Z,7.68
2023-02-01T01:35:13.679Z,7.63
2023-02-01T01:40:17.570Z,7.58
2023-02-01T01:45:29.138Z,7.56
2023-02-01T01:50:51.566Z,7.51
2023-02-01T01:55:57.320Z,7.46
2023-02-01T02:05:20.173Z,7.40
2023-02-01T02:10:47.809Z,7.36
2023-02-01T02:16:18.942Z,7.30
2023-02-01T02:21:51.458Z,7.26
2023-02-01T02:27:03.818Z,7.26
2023-02-01T02:32:27.310Z,7.26
2023-02-01T02:37:54.307Z,7.26
2023-02-01T02:43:51.193Z,7.29
2023-02-01T02:54:48.225Z,7.31
2023-02-01T03:00:22.869Z,7.27
2023-02-01T03:05:26.538Z,7.22
2023-02-01T03:10:51.217Z,7.15
2023-02-01T03:16:03.376Z,7.11
2023-02-01T03:21:21.093Z,7.13
2023-02-01T03:26:26.819Z,7.15
2023-02-01T03:31:30.720Z,7.20
2023-02-01T03:36:43.072Z,7.23
2023-02-01T03:41:58.966Z,7.23
2023-02-01T03:47:21.520Z,7.24
2023-02-01T03:52:35.728Z,7.27
2023-02-01T03:57:54.231Z,7.29
2023-02-01T04:02:57.956Z,7.29
2023-02-01T04:08:02.043Z,7.27
2023-02-01T04:13:27.670Z,7.31
2023-02-01T04:18:30.159Z,7.30
2023-02-01T04:23:33.201Z,7.31
2023-02-01T04:28:37.075Z,7.35
2023-02-01T04:33:38.907Z,7.40
2023-02-01T04:38:43.838Z,7.43
2023-02-01T04:43:54.014Z,7.45
2023-02-01T04:48:56.411Z,7.43
2023-02-01T04:54:00.128Z,7.42
2023-02-01T04:59:06.981Z,7.43
2023-02-01T05:18:48.135Z,8.03
2023-02-01T05:24:08.572Z,7.98
2023-02-01T05:29:11.203Z,7.94
2023-02-01T05:34:12.992Z,7.88
2023-02-01T05:39:15.021Z,7.84
2023-02-01T05:44:16.851Z,7.80
2023-02-01T05:49:18.858Z,7.74
2023-02-01T05:54:20.650Z,7.64
2023-02-01T05:59:22.509Z,7.59
2023-02-01T06:04:24.339Z,7.57
2023-02-01T06:09:26.160Z,7.52
2023-02-01T06:14:28.751Z,7.50
2023-02-01T06:19:31.411Z,7.48
2023-02-01T06:24:33.367Z,7.45
2023-02-01T06:29:35.222Z,7.41
2023-02-01T06:34:38.214Z,7.38
2023-02-01T06:39:44.882Z,7.32
2023-02-01T06:44:46.850Z,7.28
2023-02-01T06:49:48.780Z,7.19
2023-02-01T06:54:50.744Z,7.11
2023-02-01T07:00:18.106Z,7.00
2023-02-01T07:05:20.041Z,6.96
2023-02-01T07:10:22.193Z,6.96
2023-02-01T07:15:25.474Z,7.02
2023-02-01T07:20:27.492Z,7.04
2023-02-01T07:25:32.089Z,7.05
2023-02-01T07:30:35.907Z,7.05
2023-02-01T07:35:37.775Z,7.06
2023-02-01T07:40:42.700Z,7.05
2023-02-01T07:45:44.556Z,7.06
2023-02-01T07:50:46.592Z,7.13
2023-02-01T07:55:49.823Z,7.22
2023-02-01T08:01:11.064Z,7.31
2023-02-01T08:06:16.461Z,7.44
2023-02-01T08:11:23.023Z,9.21
2023-02-01T08:16:25.073Z,11.15
2023-02-01T08:21:38.362Z,13.77
2023-02-01T08:26:40.560Z,15.24
2023-02-01T08:31:44.848Z,14.51
2023-02-01T08:36:47.033Z,13.60
2023-02-01T08:42:08.822Z,13.06
2023-02-01T08:47:17.303Z,12.88
2023-02-01T08:52:19.181Z,12.82
2023-02-01T08:57:21.039Z,12.98
2023-02-01T09:02:22.896Z,13.15
2023-02-01T09:07:24.811Z,13.22
2023-02-01T09:12:30.433Z,13.35
2023-02-01T09:17:32.287Z,13.46
2023-02-01T09:22:34.154Z,13.52
2023-02-01T09:27:36.739Z,13.53
2023-02-01T09:32:39.012Z,13.66
2023-02-01T09:37:40.876Z,13.91
2023-02-01T09:43:02.987Z,14.03
2023-02-01T09:48:15.202Z,14.29
2023-02-01T09:53:22.380Z,14.59
2023-02-01T09:58:34.919Z,14.72
2023-02-01T10:03:37.764Z,14.87
2023-02-01T10:09:05.473Z,14.92
2023-02-01T10:14:17.146Z,15.10
2023-02-01T10:19:24.777Z,15.27
2023-02-01T10:24:38.538Z,15.36
2023-02-01T10:29:46.943Z,15.43
2023-02-01T10:34:58.788Z,15.68
2023-02-01T10:40:12.717Z,15.79
2023-02-01T10:45:18.704Z,16.02
2023-02-01T10:50:33.070Z,16.25
2023-02-01T10:55:50.623Z,16.41
2023-02-01T11:01:06.377Z,16.65
2023-02-01T11:06:31.864Z,16.87
2023-02-01T11:11:55.136Z,16.95
2023-02-01T11:17:16.421Z,16.86
2023-02-01T11:22:19.064Z,16.92
2023-02-01T11:27:27.650Z,17.10
2023-02-01T11:32:30.899Z,17.36
2023-02-01T11:37:38.301Z,17.40
2023-02-01T11:42:55.451Z,17.66
2023-02-01T11:47:59.437Z,17.76
2023-02-01T11:53:26.217Z,17.78
2023-02-01T11:58:59.764Z,17.81
2023-02-01T12:04:15.222Z,17.97
2023-02-01T12:09:50.985Z,18.16
2023-02-01T12:15:11.943Z,18.15
2023-02-01T12:20:35.779Z,18.20
2023-02-01T12:25:55.591Z,18.46
2023-02-01T12:31:08.272Z,18.51
2023-02-01T12:36:51.707Z,18.56
2023-02-01T12:42:06.239Z,18.56
2023-02-01T12:47:24.879Z,18.61
2023-02-01T12:52:45.116Z,18.54
2023-02-01T12:57:56.416Z,18.37
2023-02-01T13:03:06.854Z,18.25
2023-02-01T13:08:18.881Z,18.23
2023-02-01T13:13:25.281Z,18.18
2023-02-01T13:18:38.359Z,17.76
2023-02-01T13:23:42.572Z,17.53
2023-02-01T13:28:54.061Z,17.29
2023-02-01T13:34:26.807Z,16.99
2023-02-01T13:39:37.631Z,16.81
2023-02-01T13:44:44.891Z,16.87
2023-02-01T13:49:46.877Z,16.95
2023-02-01T13:55:04.595Z,16.96
2023-02-01T14:00:31.576Z,16.77
2023-02-01T14:05:37.476Z,16.69
2023-02-01T14:11:01.018Z,16.47
2023-02-01T14:16:05.865Z,16.16
2023-02-01T14:21:24.100Z,15.98
2023-02-01T14:26:46.594Z,15.80
2023-02-01T14:32:03.923Z,15.45
2023-02-01T14:37:09.938Z,15.33
2023-02-01T14:42:27.791Z,15.18
2023-02-01T14:47:32.019Z,15.15
2023-02-01T14:52:46.584Z,15.03
2023-02-01T14:57:55.761Z,14.97
2023-02-01T15:03:24.007Z,14.97
2023-02-01T15:08:36.436Z,15.09
2023-02-01T15:13:38.272Z,14.92
2023-02-01T15:18:40.821Z,14.82
2023-02-01T15:23:42.691Z,14.68
2023-02-01T15:28:44.570Z,14.67
2023-02-01T15:34:00.927Z,14.52
2023-02-01T15:39:23.926Z,14.30
2023-02-01T15:44:47.034Z,14.19
2023-02-01T15:49:54.948Z,14.14
2023-02-01T15:55:01.147Z,14.06
2023-02-01T16:00:08.836Z,13.87
2023-02-01T16:05:31.807Z,13.74
2023-02-01T16:10:40.745Z,13.70
2023-02-01T16:15:43.144Z,13.71
2023-02-01T16:20:44.934Z,13.62
2023-02-01T16:25:47.261Z,13.55
2023-02-01T16:30:49.729Z,13.52
2023-02-01T16:35:52.434Z,13.50
2023-02-01T16:40:54.568Z,13.39
2023-02-01T16:46:01.547Z,13.30
2023-02-01T16:51:12.549Z,13.24
2023-02-01T16:56:30.862Z,13.11
2023-02-01T17:01:38.633Z,13.04
2023-02-01T17:06:42.913Z,12.98
2023-02-01T17:11:46.575Z,12.92
2023-02-01T17:16:52.442Z,12.88
2023-02-01T17:22:00.138Z,12.84
2023-02-01T17:27:04.522Z,12.76
2023-02-01T17:32:06.895Z,12.71
2023-02-01T17:37:23.163Z,12.67
2023-02-01T17:42:30.954Z,12.64
2023-02-01T17:47:34.035Z,12.59
2023-02-01T17:52:36.356Z,12.55
2023-02-01T17:57:38.208Z,12.49
2023-02-01T18:02:44.136Z,12.46
2023-02-01T18:07:46.110Z,12.42
2023-02-01T18:12:47.999Z,12.42
2023-02-01T18:17:50.095Z,12.40
2023-02-01T18:22:52.173Z,12.36
2023-02-01T18:27:55.903Z,12.34
2023-02-01T18:32:57.880Z,12.30
2023-02-01T18:38:10.954Z,12.24
2023-02-01T18:43:13.787Z,12.19
2023-02-01T18:48:16.928Z,12.10
2023-02-01T18:53:20.543Z,12.01
2023-02-01T18:58:26.386Z,11.93
2023-02-01T19:03:31.767Z,11.83
2023-02-01T19:08:34.203Z,11.75
2023-02-01T19:13:39.498Z,11.68
2023-02-01T19:18:46.274Z,11.61
2023-02-01T19:23:48.506Z,11.58
2023-02-01T19:28:53.227Z,11.54
2023-02-01T19:33:55.266Z,11.49
2023-02-01T19:38:57.531Z,11.43
2023-02-01T19:44:02.058Z,11.36
2023-02-01T19:49:12.049Z,11.31
2023-02-01T19:54:14.890Z,11.27
2023-02-01T19:59:18.658Z,11.23
2023-02-01T20:04:19.987Z,11.21
2023-02-01T20:09:24.519Z,11.15
2023-02-01T20:14:27.177Z,11.08
2023-02-01T20:19:31.968Z,11.01
2023-02-01T20:24:34.006Z,10.95
2023-02-01T20:29:36.674Z,10.90
2023-02-01T20:34:38.638Z,10.92
2023-02-01T20:39:40.626Z,10.93
2023-02-01T20:44:45.567Z,10.93
2023-02-01T20:49:47.414Z,10.90
2023-02-01T20:54:49.278Z,10.83
2023-02-01T20:59:51.543Z,10.76
2023-02-01T21:04:53.472Z,10.66
2023-02-01T21:09:56.651Z,10.57
2023-02-01T21:14:58.647Z,10.48
2023-02-01T21:20:00.590Z,10.44
2023-02-01T21:25:02.562Z,10.41
2023-02-01T21:30:07.167Z,10.39
2023-02-01T21:35:09.757Z,10.39
2023-02-01T21:40:11.735Z,10.39
2023-02-01T21:45:16.123Z,10.46
2023-02-01T21:50:20.268Z,10.51
2023-02-01T21:55:22.308Z,10.57
2023-02-01T22:00:24.530Z,10.60
2023-02-01T22:05:27.404Z,10.62
2023-02-01T22:10:29.255Z,10.61
2023-02-01T22:15:33.958Z,10.58
2023-02-01T22:20:38.854Z,10.53
2023-02-01T22:25:41.342Z,10.53
2023-02-01T22:30:46.706Z,10.55
2023-02-01T22:36:09.451Z,10.55
2023-02-01T22:41:26.741Z,10.58
2023-02-01T22:46:31.437Z,10.60
2023-02-01T22:51:34.041Z,10.60
2023-02-01T22:56:38.653Z,10.60
2023-02-01T23:01:41.307Z,10.59
2023-02-01T23:06:43.183Z,10.55
2023-02-01T23:11:45.837Z,10.52
2023-02-01T23:16:50.183Z,10.48
2023-02-01T23:21:53.240Z,10.46
2023-02-01T23:26:55.119Z,10.39
2023-02-01T23:31:57.122Z,10.32
2023-02-01T23:36:59.333Z,10.29
2023-02-01T23:42:03.374Z,10.24
2023-02-01T23:47:05.241Z,10.19
2023-02-01T23:52:07.149Z,10.16
2023-02-01T23:57:09.339Z,10.11
